Time;durP1;ratioP1;P1;durP2;ratioP2;P2;SDS_P1;SDS_P2;PMS_P1;PMS_P2;Temp;Humidity;BMP_temperature;BMP_pressure;BME280_temperature;BME280_humidity;BME280_pressure;Samples;Min_cycle;Max_cycle;Signal;HPM_P1;HPM_P2
2023/12/24 00:02:19;;;;;;;22.20;5.00;;;;;;;;;;5119317;27;20073;-87
2023/12/24 00:04:49;;;;;;;31.98;7.00;;;;;;;;;;5106869;27;20063;-90
2023/12/24 00:07:15;;;;;;;24.45;5.47;;;;;;;;;;5127377;27;20034;-90
2023/12/24 00:09:41;;;;;;;22.25;5.85;;;;;;;;;;5126190;27;20163;-88
2023/12/24 00:12:07;;;;;;;23.00;6.70;;;;;;;;;;5123226;27;20038;-87
2023/12/24 00:14:33;;;;;;;25.83;6.05;;;;;;;;;;5122050;27;20051;-85
2023/12/24 00:17:00;;;;;;;22.50;6.18;;;;;;;;;;5125760;27;20038;-91
2023/12/24 00:19:29;;;;;;;27.45;6.13;;;;;;;;;;5125553;27;20430;-88
2023/12/24 00:21:55;;;;;;;26.75;7.05;;;;;;;;;;5125286;27;20045;-86
2023/12/24 00:24:21;;;;;;;19.63;5.22;;;;;;;;;;5126268;27;20050;-86
2023/12/24 00:26:47;;;;;;;31.70;6.68;;;;;;;;;;5125623;27;20119;-85
2023/12/24 00:29:13;;;;;;;22.70;6.18;;;;;;;;;;5127947;27;20054;-87
2023/12/24 00:31:40;;;;;;;24.50;5.03;;;;;;;;;;5124766;27;20047;-87
2023/12/24 00:34:07;;;;;;;26.23;6.10;;;;;;;;;;5127103;27;20043;-89
2023/12/24 00:36:33;;;;;;;31.38;6.00;;;;;;;;;;5127785;27;20047;-87
2023/12/24 00:38:59;;;;;;;23.35;6.32;;;;;;;;;;5126678;27;20035;-88
2023/12/24 00:41:25;;;;;;;24.60;4.82;;;;;;;;;;5128168;27;20047;-86
2023/12/24 00:43:51;;;;;;;20.77;5.28;;;;;;;;;;5127219;27;20078;-88
2023/12/24 00:46:17;;;;;;;25.15;6.35;;;;;;;;;;5127267;27;20042;-86
2023/12/24 00:48:44;;;;;;;27.63;6.25;;;;;;;;;;5129321;27;20042;-87
2023/12/24 00:51:11;;;;;;;20.00;5.38;;;;;;;;;;5134245;27;20042;-87
2023/12/24 00:53:37;;;;;;;22.02;5.78;;;;;;;;;;5138491;27;20078;-88
2023/12/24 00:56:03;;;;;;;30.10;5.63;;;;;;;;;;5137770;27;20772;-87
2023/12/24 00:58:29;;;;;;;24.25;7.78;;;;;;;;;;5136443;27;20049;-89
2023/12/24 01:00:55;;;;;;;24.33;7.15;;;;;;;;;;5130180;27;20110;-89
2023/12/24 01:03:22;;;;;;;33.80;8.43;;;;;;;;;;5130934;27;20514;-86
2023/12/24 01:05:48;;;;;;;35.78;8.52;;;;;;;;;;5131344;27;20857;-88
2023/12/24 01:08:14;;;;;;;30.55;7.20;;;;;;;;;;5130598;27;20796;-88
2023/12/24 01:10:40;;;;;;;30.95;6.57;;;;;;;;;;5130475;27;20042;-88
2023/12/24 01:13:07;;;;;;;31.52;8.95;;;;;;;;;;5129886;27;20081;-88
2023/12/24 01:15:33;;;;;;;27.80;7.45;;;;;;;;;;5130072;27;20051;-89
2023/12/24 01:17:59;;;;;;;22.80;6.57;;;;;;;;;;5129446;27;20161;-85
2023/12/24 01:20:25;;;;;;;29.23;8.13;;;;;;;;;;5129477;27;20130;-86
2023/12/24 01:22:51;;;;;;;27.48;7.32;;;;;;;;;;5122374;27;20039;-90
2023/12/24 01:25:18;;;;;;;30.20;7.60;;;;;;;;;;5130353;27;20145;-87
2023/12/24 01:27:44;;;;;;;31.33;7.68;;;;;;;;;;5129780;27;20042;-86
2023/12/24 01:30:11;;;;;;;27.10;8.35;;;8.40;99.90;;;;;;5130484;27;20490;-87
2023/12/24 01:32:37;;;;;;;28.00;6.53;;;;;;;;;;5129817;27;20039;-88
2023/12/24 01:35:03;;;;;;;26.80;7.60;;;;;;;;;;5130851;27;20407;-84
2023/12/24 01:37:29;;;;;;;21.27;5.90;;;;;;;;;;5131264;27;20423;-87
2023/12/24 01:39:55;;;;;;;25.92;6.10;;;;;;;;;;5130146;27;20057;-86
2023/12/24 01:42:21;;;;;;;30.30;7.32;;;;;;;;;;5129630;27;20039;-86
2023/12/24 01:44:48;;;;;;;22.50;5.90;;;;;;;;;;5128241;27;20046;-88
2023/12/24 01:47:14;;;;;;;30.45;6.40;;;;;;;;;;5129808;27;20046;-87
2023/12/24 01:49:40;;;;;;;23.85;6.22;;;;;;;;;;5129785;27;20043;-86
2023/12/24 01:52:08;;;;;;;18.88;5.43;;;;;;;;;;5130353;27;20058;-87
2023/12/24 01:54:34;;;;;;;24.75;5.95;;;8.20;99.90;;;;;;5130463;27;20046;-87
2023/12/24 01:57:01;;;;;;;21.17;6.30;;;;;;;;;;5114008;27;20138;-87
2023/12/24 01:59:27;;;;;;;18.27;5.28;;;;;;;;;;5130008;27;20043;-86
2023/12/24 02:01:53;;;;;;;18.65;4.13;;;;;;;;;;5130371;27;20519;-86
2023/12/24 02:04:19;;;;;;;15.45;5.07;;;;;;;;;;5129828;27;20683;-87
2023/12/24 02:06:46;;;;;;;15.43;3.47;;;;;;;;;;5130007;27;20054;-85
2023/12/24 02:09:12;;;;;;;15.20;4.05;;;;;;;;;;5129946;27;20399;-84
2023/12/24 02:11:38;;;;;;;20.23;4.13;;;;;;;;;;5130125;27;20175;-90
2023/12/24 02:14:04;;;;;;;14.40;3.67;;;;;;;;;;5129479;27;20038;-89
2023/12/24 02:16:36;;;;;;;19.25;3.92;;;8.30;99.90;;;;;;5130003;27;20053;-90
2023/12/24 02:19:06;;;;;;;11.40;3.10;;;8.20;99.90;;;;;;5113051;27;20121;-90
2023/12/24 02:21:32;;;;;;;9.38;2.47;;;;;;;;;;5129157;27;20252;-87
2023/12/24 02:23:58;;;;;;;11.57;2.70;;;;;;;;;;5129398;27;20042;-87
2023/12/24 02:26:33;;;;;;;12.35;2.88;;;8.40;99.90;;;;;;5127916;27;20114;-88
2023/12/24 02:29:02;;;;;;;10.75;3.13;;;;;;;;;;5109998;27;20127;-87
2023/12/24 02:31:31;;;;;;;15.40;3.58;;;8.50;99.90;;;;;;5128085;27;20067;-91
2023/12/24 02:33:58;;;;;;;12.57;3.03;;;8.60;99.90;;;;;;5111753;27;20039;-91
2023/12/24 02:36:25;;;;;;;20.30;4.63;;;8.40;99.90;;;;;;5128577;27;20039;-89
2023/12/24 02:38:51;;;;;;;13.30;4.55;;;;;;;;;;5111198;27;20041;-91
2023/12/24 02:41:17;;;;;;;13.38;3.35;;;;;;;;;;5129362;27;20038;-88
2023/12/24 02:43:44;;;;;;;8.98;2.78;;;;;;;;;;5128765;27;20052;-87
2023/12/24 02:46:10;;;;;;;14.30;3.63;;;;;;;;;;5128108;27;20046;-88
2023/12/24 02:48:36;;;;;;;11.95;3.70;;;;;;;;;;5128473;27;20042;-90
2023/12/24 02:51:04;;;;;;;12.25;4.22;;;;;;;;;;5127896;27;20049;-87
2023/12/24 02:53:30;;;;;;;16.67;4.40;;;;;;;;;;5128892;27;20576;-85
2023/12/24 02:55:56;;;;;;;16.45;5.60;;;;;;;;;;5127542;27;20038;-88
2023/12/24 02:58:22;;;;;;;13.20;4.93;;;;;;;;;;5128259;27;20050;-88
2023/12/24 03:00:48;;;;;;;14.40;6.70;;;;;;;;;;5128222;27;20035;-90
2023/12/24 03:03:14;;;;;;;13.38;5.10;;;;;;;;;;5129302;27;20039;-89
2023/12/24 03:05:41;;;;;;;16.38;6.07;;;;;;;;;;5128805;27;20045;-89
2023/12/24 03:08:07;;;;;;;15.00;5.57;;;;;;;;;;5127441;27;20038;-89
2023/12/24 03:10:33;;;;;;;13.95;4.80;;;;;;;;;;5107556;27;20050;-88
2023/12/24 03:12:59;;;;;;;11.27;3.55;;;;;;;;;;5127391;27;20122;-87
2023/12/24 03:15:25;;;;;;;10.90;3.40;;;;;;;;;;5127681;27;20034;-88
2023/12/24 03:17:51;;;;;;;9.25;2.85;;;;;;;;;;5128323;27;20060;-88
2023/12/24 03:20:17;;;;;;;9.80;3.15;;;;;;;;;;5128861;27;20035;-88
2023/12/24 03:22:44;;;;;;;11.60;2.38;;;;;;;;;;5128752;27;20039;-86
2023/12/24 03:25:10;;;;;;;6.93;2.00;;;;;;;;;;5127472;27;20757;-86
2023/12/24 03:27:36;;;;;;;6.38;1.88;;;;;;;;;;5127667;27;20073;-89
2023/12/24 03:30:02;;;;;;;7.18;2.38;;;;;;;;;;5120881;27;20494;-89
2023/12/24 03:32:28;;;;;;;7.50;2.33;;;;;;;;;;5127857;27;20046;-88
2023/12/24 03:34:54;;;;;;;6.82;2.40;;;;;;;;;;5127547;27;20046;-89
2023/12/24 03:37:21;;;;;;;7.60;2.88;;;;;;;;;;5127676;27;20073;-87
2023/12/24 03:39:47;;;;;;;11.38;2.90;;;;;;;;;;5127956;27;20091;-89
2023/12/24 03:42:13;;;;;;;8.05;2.55;;;;;;;;;;5127759;27;20038;-85
2023/12/24 03:44:39;;;;;;;10.63;2.38;;;;;;;;;;5127804;27;20046;-88
2023/12/24 03:47:05;;;;;;;9.90;2.30;;;;;;;;;;5127349;27;20407;-90
2023/12/24 03:49:31;;;;;;;8.57;3.08;;;;;;;;;;5127808;27;20078;-88
2023/12/24 03:51:58;;;;;;;11.00;3.30;;;;;;;;;;5128272;27;20398;-88
2023/12/24 03:54:24;;;;;;;11.52;3.50;;;;;;;;;;5126110;27;20042;-90
2023/12/24 03:56:50;;;;;;;9.52;2.95;;;;;;;;;;5127481;27;20165;-89
2023/12/24 03:59:16;;;;;;;10.57;2.80;;;;;;;;;;5128767;27;20065;-89
2023/12/24 04:01:43;;;;;;;12.82;2.17;;;8.60;99.90;;;;;;5128426;27;20651;-86
2023/12/24 04:04:09;;;;;;;11.48;4.03;;;;;;;;;;5110711;27;20057;-89
2023/12/24 04:06:35;;;;;;;8.70;3.28;;;;;;;;;;5128071;27;20158;-89
2023/12/24 04:09:01;;;;;;;10.45;3.42;;;;;;;;;;5128283;27;20124;-89
2023/12/24 04:11:27;;;;;;;11.93;3.78;;;;;;;;;;5127999;27;20516;-89
2023/12/24 04:13:53;;;;;;;9.63;3.00;;;;;;;;;;5127476;27;20511;-90
2023/12/24 04:16:19;;;;;;;6.97;2.63;;;;;;;;;;5127158;27;20043;-90
2023/12/24 04:18:46;;;;;;;9.25;3.03;;;;;;;;;;5126865;27;20558;-89
2023/12/24 04:21:12;;;;;;;8.70;3.20;;;;;;;;;;5127235;27;20035;-90
2023/12/24 04:23:38;;;;;;;8.70;2.97;;;;;;;;;;5126609;27;20043;-87
2023/12/24 04:26:04;;;;;;;8.90;3.97;;;;;;;;;;5127202;27;20079;-86
2023/12/24 04:28:31;;;;;;;8.88;2.30;;;8.70;99.90;;;;;;5131418;27;20178;-88
2023/12/24 04:30:58;;;;;;;8.63;2.90;;;;;;;;;;5131034;27;20426;-88
2023/12/24 04:33:24;;;;;;;6.28;2.35;;;;;;;;;;5130707;27;20045;-86
2023/12/24 04:35:50;;;;;;;5.47;1.50;;;;;;;;;;5130946;27;20433;-89
2023/12/24 04:38:16;;;;;;;5.05;1.90;;;;;;;;;;5129368;27;20184;-88
2023/12/24 04:40:42;;;;;;;5.28;2.10;;;;;;;;;;5131287;27;20559;-87
2023/12/24 04:43:08;;;;;;;4.15;1.75;;;;;;;;;;5131061;27;20070;-89
2023/12/24 04:45:35;;;;;;;4.85;2.00;;;8.50;99.90;;;;;;5131003;27;20745;-91
2023/12/24 04:48:03;;;;;;;3.63;1.40;;;;;;;;;;5131239;27;20046;-89
2023/12/24 04:50:29;;;;;;;4.18;1.65;;;;;;;;;;5130792;27;20089;-86
2023/12/24 04:52:55;;;;;;;5.85;1.80;;;;;;;;;;5130795;27;20150;-90
2023/12/24 04:55:21;;;;;;;7.10;1.60;;;;;;;;;;5130756;27;20049;-88
2023/12/24 04:57:48;;;;;;;6.25;2.28;;;;;;;;;;5131305;27;20039;-89
2023/12/24 05:00:14;;;;;;;6.25;1.30;;;;;;;;;;5130712;27;20042;-86
2023/12/24 05:02:40;;;;;;;4.43;1.30;;;;;;;;;;5130617;27;20519;-88
2023/12/24 05:05:06;;;;;;;5.93;1.33;;;;;;;;;;5131047;27;20042;-88
2023/12/24 05:07:32;;;;;;;6.10;1.25;;;;;;;;;;5131280;27;20498;-86
2023/12/24 05:09:59;;;;;;;6.15;1.88;;;;;;;;;;5132007;27;20049;-86
2023/12/24 05:12:25;;;;;;;2.83;1.45;;;;;;;;;;5133888;27;20038;-89
2023/12/24 05:14:51;;;;;;;3.95;1.55;;;;;;;;;;5134650;27;20054;-87
2023/12/24 05:17:17;;;;;;;4.80;1.30;;;;;;;;;;5134795;27;20066;-89
2023/12/24 05:19:43;;;;;;;5.50;2.10;;;;;;;;;;5131540;27;20042;-90
2023/12/24 05:22:09;;;;;;;6.32;2.00;;;;;;;;;;5128621;27;20046;-88
2023/12/24 05:24:35;;;;;;;7.28;1.92;;;;;;;;;;5130028;27;20049;-88
2023/12/24 05:27:02;;;;;;;5.18;2.72;;;;;;;;;;5130200;27;20863;-84
2023/12/24 05:29:28;;;;;;;7.03;1.65;;;;;;;;;;5129911;27;20043;-88
2023/12/24 05:31:56;;;;;;;8.73;2.63;;;;;;;;;;5130011;27;20041;-89
2023/12/24 05:34:22;;;;;;;6.05;2.40;;;;;;;;;;5129227;27;20089;-88
2023/12/24 05:36:49;;;;;;;8.25;3.03;;;;;;;;;;5129789;27;20042;-88
2023/12/24 05:39:15;;;;;;;6.15;3.05;;;;;;;;;;5128998;27;20828;-89
2023/12/24 05:41:44;;;;;;;3.55;2.25;;;9.00;99.90;;;;;;5128510;27;20039;-86
2023/12/24 05:44:11;;;;;;;7.07;2.85;;;;;;;;;;5111692;27;20050;-88
2023/12/24 05:46:37;;;;;;;7.55;3.35;;;;;;;;;;5129606;27;20095;-89
2023/12/24 05:49:03;;;;;;;8.20;4.18;;;;;;;;;;5129010;27;20127;-87
2023/12/24 05:51:29;;;;;;;7.28;2.65;;;;;;;;;;5129546;27;20080;-84
2023/12/24 05:53:55;;;;;;;5.97;3.10;;;;;;;;;;5130109;27;20482;-87
2023/12/24 05:56:21;;;;;;;8.30;3.30;;;;;;;;;;5129009;27;20751;-87
2023/12/24 05:58:47;;;;;;;10.48;3.40;;;;;;;;;;5129195;27;20035;-88
2023/12/24 06:01:14;;;;;;;8.43;3.42;;;;;;;;;;5129124;27;20045;-89
2023/12/24 06:03:40;;;;;;;9.73;4.22;;;;;;;;;;5128285;27;20038;-88
2023/12/24 06:06:06;;;;;;;8.77;3.50;;;;;;;;;;5128361;27;20494;-86
2023/12/24 06:08:32;;;;;;;10.98;4.43;;;;;;;;;;5128849;27;20146;-88
2023/12/24 06:11:01;;;;;;;11.45;4.10;;;9.10;99.90;;;;;;5129890;27;20047;-88
2023/12/24 06:13:27;;;;;;;9.90;4.28;;;;;;;;;;5111876;27;20460;-86
2023/12/24 06:15:53;;;;;;;11.63;4.78;;;;;;;;;;5128314;27;20057;-87
2023/12/24 06:18:20;;;;;;;12.15;5.15;;;;;;;;;;5128896;27;20052;-83
2023/12/24 06:20:46;;;;;;;11.57;4.28;;;;;;;;;;5128673;27;20039;-89
2023/12/24 06:23:12;;;;;;;15.43;4.80;;;;;;;;;;5128309;27;20049;-88
2023/12/24 06:25:38;;;;;;;11.07;5.32;;;;;;;;;;5127840;27;20696;-88
2023/12/24 06:28:05;;;;;;;14.57;5.57;;;;;;;;;;5125628;27;20042;-86
2023/12/24 06:30:31;;;;;;;15.30;6.25;;;;;;;;;;5128423;27;20153;-86
2023/12/24 06:32:57;;;;;;;15.80;6.68;;;;;;;;;;5128482;27;20447;-87
2023/12/24 06:35:23;;;;;;;13.32;5.70;;;;;;;;;;5128797;27;20815;-86
2023/12/24 06:37:49;;;;;;;16.40;6.38;;;;;;;;;;5128566;27;20042;-85
2023/12/24 06:40:15;;;;;;;21.42;7.47;;;;;;;;;;5128172;27;20046;-86
2023/12/24 06:42:41;;;;;;;14.73;6.00;;;;;;;;;;5128557;27;20038;-88
2023/12/24 06:45:11;;;;;;;18.38;8.40;;;;;;;;;;5129242;27;20117;-85
2023/12/24 06:47:37;;;;;;;19.10;7.20;;;;;;;;;;5126979;27;20040;-88
2023/12/24 06:50:03;;;;;;;23.25;8.23;;;;;;;;;;5126719;27;20042;-87
2023/12/24 06:52:29;;;;;;;25.95;9.32;;;;;;;;;;5128635;27;20492;-86
2023/12/24 06:54:55;;;;;;;22.70;8.45;;;;;;;;;;5128531;27;20038;-86
2023/12/24 06:57:21;;;;;;;27.83;9.27;;;;;;;;;;5128388;27;20041;-87
2023/12/24 06:59:48;;;;;;;28.73;11.82;;;;;;;;;;5128217;27;20102;-88
2023/12/24 07:02:17;;;;;;;26.70;9.60;;;;;;;;;;5128747;27;20041;-89
2023/12/24 07:04:43;;;;;;;34.42;11.13;;;;;;;;;;5127845;27;20487;-83
2023/12/24 07:07:09;;;;;;;33.55;10.13;;;;;;;;;;5128262;27;20087;-88
2023/12/24 07:09:35;;;;;;;24.75;9.45;;;;;;;;;;5128273;27;20046;-90
2023/12/24 07:12:01;;;;;;;31.75;9.35;;;;;;;;;;5127945;27;20042;-86
2023/12/24 07:14:27;;;;;;;27.90;10.80;;;;;;;;;;5128419;27;20074;-87
2023/12/24 07:16:54;;;;;;;37.10;9.88;;;;;;;;;;5128274;27;20088;-88
2023/12/24 07:19:20;;;;;;;27.17;8.30;;;;;;;;;;5129781;27;20407;-88
2023/12/24 07:21:46;;;;;;;31.38;9.40;;;;;;;;;;5132021;27;20042;-87
2023/12/24 07:24:12;;;;;;;30.75;9.30;;;;;;;;;;5150454;27;20601;-87
2023/12/24 07:26:39;;;;;;;33.35;9.98;;;;;;;;;;5132585;27;20042;-85
2023/12/24 07:29:05;;;;;;;36.55;9.77;;;;;;;;;;5129876;27;20042;-88
2023/12/24 07:31:31;;;;;;;28.63;9.93;;;;;;;;;;5127426;27;20045;-88
2023/12/24 07:33:57;;;;;;;29.58;8.75;;;;;;;;;;5128545;27;20074;-89
2023/12/24 07:36:23;;;;;;;34.45;8.90;;;;;;;;;;5128503;27;20785;-84
2023/12/24 07:38:49;;;;;;;31.83;9.88;;;;;;;;;;5127256;27;20898;-87
2023/12/24 07:41:16;;;;;;;33.90;9.77;;;;;;;;;;5127952;27;20126;-86
2023/12/24 07:43:43;;;;;;;34.83;10.93;;;;;;;;;;5127483;27;20213;-86
2023/12/24 07:46:09;;;;;;;29.65;9.10;;;;;;;;;;5127353;27;20042;-86
2023/12/24 07:48:35;;;;;;;27.77;9.88;;;;;;;;;;5119838;27;20119;-88
2023/12/24 07:51:02;;;;;;;32.53;9.85;;;;;;;;;;5127680;27;20050;-87
2023/12/24 07:53:28;;;;;;;30.45;9.30;;;;;;;;;;5127014;27;20046;-87
2023/12/24 07:55:55;;;;;;;30.67;7.95;;;;;;;;;;5127839;27;20503;-88
2023/12/24 07:58:21;;;;;;;28.60;8.93;;;;;;;;;;5126508;27;20038;-91
2023/12/24 08:00:47;;;;;;;24.23;8.50;;;;;;;;;;5128632;27;20050;-86
2023/12/24 08:03:13;;;;;;;37.65;10.32;;;;;;;;;;5131282;27;20150;-86
2023/12/24 08:05:39;;;;;;;30.70;10.40;;;;;;;;;;5130824;27;20073;-86
2023/12/24 08:08:05;;;;;;;36.58;10.10;;;;;;;;;;5131376;27;20082;-87
2023/12/24 08:10:31;;;;;;;32.50;10.38;;;;;;;;;;5131224;27;20046;-87
2023/12/24 08:12:57;;;;;;;35.85;12.55;;;;;;;;;;5129779;27;20042;-85
2023/12/24 08:15:24;;;;;;;39.97;10.63;;;;;;;;;;5131431;27;20035;-86
2023/12/24 08:17:50;;;;;;;30.77;10.73;;;;;;;;;;5130929;27;20088;-88
2023/12/24 08:20:20;;;;;;;37.35;11.20;;;;;;;;;;5131481;27;20608;-86
2023/12/24 08:22:47;;;;;;;37.88;12.13;;;;;;;;;;5132100;27;20061;-88
2023/12/24 08:25:13;;;;;;;36.63;11.40;;;;;;;;;;5131451;27;20126;-86
2023/12/24 08:27:39;;;;;;;28.08;10.52;;;;;;;;;;5131907;27;20148;-89
2023/12/24 08:30:06;;;;;;;29.67;11.25;;;10.00;99.90;;;;;;5130810;27;20053;-87
2023/12/24 08:32:32;;;;;;;29.75;10.80;;;;;;;;;;5114128;27;20446;-90
2023/12/24 08:34:58;;;;;;;37.17;11.98;;;;;;;;;;5130649;27;20557;-91
2023/12/24 08:37:24;;;;;;;37.22;13.55;;;;;;;;;;5130795;27;20498;-87
2023/12/24 08:39:50;;;;;;;31.67;11.18;;;;;;;;;;5131162;27;20050;-85
2023/12/24 08:42:16;;;;;;;41.60;11.55;;;;;;;;;;5131581;27;20049;-88
2023/12/24 08:44:43;;;;;;;35.75;12.15;;;;;;;;;;5131326;27;20042;-85
2023/12/24 08:47:09;;;;;;;43.85;13.35;;;;;;;;;;5130537;27;20065;-90
2023/12/24 08:49:36;;;;;;;40.35;13.70;;;;;;;;;;5130516;27;20046;-86
2023/12/24 08:52:02;;;;;;;46.70;16.40;;;;;;;;;;5131372;27;20042;-88
2023/12/24 08:54:28;;;;;;;45.75;14.13;;;;;;;;;;5128720;27;20504;-88
2023/12/24 08:56:54;;;;;;;50.90;14.65;;;;;;;;;;5130736;27;20050;-88
2023/12/24 08:59:20;;;;;;;41.55;14.40;;;;;;;;;;5130940;27;20034;-89
2023/12/24 09:01:49;;;;;;;43.65;14.77;;;;;;;;;;5131257;27;20039;-87
2023/12/24 09:04:16;;;;;;;40.35;13.23;;;;;;;;;;5130837;27;20038;-86
2023/12/24 09:06:42;;;;;;;51.08;14.80;;;;;;;;;;5130821;27;20054;-86
2023/12/24 09:09:08;;;;;;;44.30;12.77;;;;;;;;;;5130994;27;20074;-90
2023/12/24 09:11:35;;;;;;;49.40;13.38;;;;;;;;;;5130993;27;20093;-87
2023/12/24 09:14:02;;;;;;;50.03;13.48;;;;;;;;;;5129557;27;20086;-89
2023/12/24 09:16:28;;;;;;;41.58;14.57;;;;;;;;;;5130684;27;20495;-88
2023/12/24 09:18:54;;;;;;;45.47;12.38;;;;;;;;;;5109814;27;20039;-87
2023/12/24 09:21:21;;;;;;;40.20;11.18;;;;;;;;;;5113060;27;20047;-86
2023/12/24 09:23:47;;;;;;;38.28;12.25;;;;;;;;;;5131295;27;20078;-87
2023/12/24 09:26:13;;;;;;;39.95;11.25;;;;;;;;;;5132957;27;20077;-86
2023/12/24 09:28:39;;;;;;;53.78;14.88;;;;;;;;;;5134231;27;20146;-86
2023/12/24 09:31:05;;;;;;;43.53;11.48;;;;;;;;;;5132419;27;20035;-87
2023/12/24 09:33:32;;;;;;;31.23;9.52;;;;;;;;;;5133254;27;20047;-85
2023/12/24 09:35:58;;;;;;;41.63;11.63;;;;;;;;;;5130056;27;20133;-87
2023/12/24 09:38:24;;;;;;;41.28;11.05;;;;;;;;;;5129648;27;20034;-88
2023/12/24 09:40:51;;;;;;;34.95;10.00;;;;;;;;;;5130575;27;20039;-87
2023/12/24 09:43:17;;;;;;;32.80;9.90;;;;;;;;;;5130443;27;20042;-88
2023/12/24 09:45:43;;;;;;;34.72;10.40;;;10.20;99.90;;;;;;5129486;27;20082;-87
2023/12/24 09:48:09;;;;;;;32.55;10.98;;;;;;;;;;5128727;27;20134;-86
2023/12/24 09:50:36;;;;;;;24.80;8.25;;;;;;;;;;5130116;27;20042;-87
2023/12/24 09:53:04;;;;;;;32.47;8.13;;;10.30;99.90;;;;;;5128938;27;20046;-89
2023/12/24 09:55:30;;;;;;;27.67;7.78;;;10.40;99.90;;;;;;5127540;27;20137;-87
2023/12/24 09:57:56;;;;;;;39.88;10.82;;;;;;;;;;5110525;27;20707;-87
2023/12/24 10:00:22;;;;;;;33.90;10.35;;;;;;;;;;5128067;27;20669;-88
2023/12/24 10:02:48;;;;;;;36.38;10.77;;;;;;;;;;5129045;27;20039;-88
2023/12/24 10:05:15;;;;;;;38.20;11.35;;;;;;;;;;5128199;27;20414;-84
2023/12/24 10:07:45;;;;;;;33.30;11.70;;;;;;;;;;5127459;27;20034;-85
2023/12/24 10:10:13;;;;;;;29.45;11.48;;;10.30;99.90;;;;;;5129341;27;20045;-86
2023/12/24 10:12:41;;;;;;;31.90;9.85;;;10.30;99.90;;;;;;5127250;27;20150;-88
2023/12/24 10:15:07;;;;;;;45.03;10.88;;;;;;;;;;5112461;27;20486;-85
2023/12/24 10:17:34;;;;;;;38.63;10.43;;;10.40;99.90;;;;;;5128650;27;20043;-90
2023/12/24 10:20:06;;;;;;;44.35;11.18;;;10.40;99.90;;;;;;5104855;27;20053;-87
2023/12/24 10:22:33;;;;;;;34.07;8.77;;;;;;;;;;5105531;27;20039;-88
2023/12/24 10:25:08;;;;;;;45.47;11.68;;;10.40;99.90;;;;;;5126775;27;20287;-86
2023/12/24 10:27:35;;;;;;;32.42;10.55;;;;;;;;;;5121278;27;20624;-89
2023/12/24 10:30:09;;;;;;;33.00;10.23;;;10.40;99.90;;;;;;5113085;27;20042;-86
2023/12/24 10:32:35;;;;;;;31.90;10.50;;;;;;;;;;5106826;27;20035;-86
2023/12/24 10:35:01;;;;;;;36.85;9.85;;;;;;;;;;5117178;27;20046;-89
2023/12/24 10:37:29;;;;;;;47.97;10.52;;;;;;;;;;5122739;27;20430;-86
2023/12/24 10:40:08;;;;;;;24.73;7.82;;;10.50;99.90;;;;;;5099824;27;20035;-88
2023/12/24 10:42:38;;;;;;;34.08;9.30;;;10.50;99.90;;;;;;5116837;27;20805;-84
2023/12/24 10:45:08;;;;;;;21.50;7.55;;;10.50;99.90;;;;;;5100778;27;20122;-86
2023/12/24 10:47:35;;;;;;;27.45;8.07;;;10.60;99.90;;;;;;5105182;27;20039;-83
2023/12/24 10:50:05;;;;;;;30.02;8.45;;;;;;;;;;5101046;27;20400;-87
2023/12/24 10:52:31;;;;;;;26.58;8.75;;;;;;;;;;5113679;27;20164;-85
2023/12/24 10:55:00;;;;;;;29.23;7.72;;;10.60;99.90;;;;;;5117678;27;20043;-86
2023/12/24 10:57:55;;;;;;;26.63;7.43;;;10.60;99.90;;;;;;5097388;27;20027;-86
2023/12/24 11:00:21;;;;;;;27.58;5.57;;;;;;;;;;5133182;27;20522;-88
2023/12/24 11:02:49;;;;;;;26.83;6.18;;;10.60;99.90;;;;;;5117463;27;20035;-86
2023/12/24 11:05:39;;;;;;;25.35;7.35;;;10.70;99.90;;;;;;5096025;27;20042;-88
2023/12/24 11:08:06;;;;;;;28.02;7.82;;;;;;;;;;5125212;27;20085;-88
2023/12/24 11:10:43;;;;;;;27.95;6.75;;;10.70;99.90;;;;;;5124778;27;20035;-88
2023/12/24 11:13:32;;;;;;;22.98;6.72;;;10.70;99.90;;;;;;5119720;27;20043;-86
2023/12/24 11:16:03;;;;;;;26.98;6.32;;;10.80;99.90;;;;;;5099242;27;20605;-87
2023/12/24 11:18:49;;;;;;;26.63;5.82;;;10.80;99.90;;;;;;5121534;27;20091;-86
2023/12/24 11:21:16;;;;;;;22.92;6.20;;;10.80;99.90;;;;;;5110791;27;20049;-87
2023/12/24 11:24:22;;;;;;;19.27;4.10;;;10.80;99.90;;;;;;5098363;27;20792;-87
2023/12/24 11:26:52;;;;;;;21.63;3.88;;;10.80;99.90;;;;;;5126606;27;20047;-88
2023/12/24 11:29:40;;;;;;;20.30;4.85;;;10.80;99.90;;;;;;5129637;27;20125;-87
2023/12/24 11:32:24;;;;;;;20.77;5.38;;;10.90;99.90;;;;;;5124503;27;20072;-85
2023/12/24 11:34:58;;;;;;;24.73;5.60;;;10.80;99.90;;;;;;5114718;27;20054;-86
2023/12/24 11:37:34;;;;;;;19.25;5.60;;;10.80;99.90;;;;;;5115122;27;20035;-87
2023/12/24 11:40:14;;;;;;;38.30;6.63;;;10.80;99.90;;;;;;5110853;27;20034;-87
2023/12/24 11:43:01;;;;;;;22.88;5.68;;;10.80;99.90;;;;;;5126832;27;20509;-85
2023/12/24 11:45:29;;;;;;;28.55;6.05;;;10.80;99.90;;;;;;5127437;27;20147;-89
2023/12/24 11:47:56;;;;;;;29.25;5.78;;;10.90;99.90;;;;;;5122090;27;20091;-89
2023/12/24 11:50:23;;;;;;;25.48;5.55;;;10.90;99.90;;;;;;5118597;27;20039;-84
2023/12/24 11:52:50;;;;;;;24.02;6.38;;;10.90;99.90;;;;;;5102686;27;20034;-89
2023/12/24 11:55:16;;;;;;;27.98;5.43;;;;;;;;;;5108631;27;20467;-89
2023/12/24 11:57:43;;;;;;;30.80;5.53;;;13.90;99.90;;;;;;5125676;27;20683;-85
2023/12/24 12:00:29;;;;;;;24.30;6.70;;;10.90;99.90;;;;;;5123880;27;20046;-85
2023/12/24 12:02:59;;;;;;;20.80;5.20;;;10.90;99.90;;;;;;5126421;27;20034;-88
2023/12/24 12:05:29;;;;;;;28.15;7.07;;;10.90;99.90;;;;;;5127077;27;20130;-86
2023/12/24 12:07:55;;;;;;;20.85;5.70;;;;;;;;;;5105103;27;20039;-85
2023/12/24 12:10:21;;;;;;;26.17;4.57;;;;;;;;;;5127498;27;20047;-85
2023/12/24 12:12:47;;;;;;;27.63;6.13;;;;;;;;;;5146217;27;20046;-88
2023/12/24 12:15:14;;;;;;;19.38;5.35;;;;;;;;;;5128166;27;20039;-84
2023/12/24 12:17:40;;;;;;;30.05;6.03;;;;;;;;;;5126298;27;20056;-88
2023/12/24 12:20:09;;;;;;;25.58;4.35;;;13.30;99.90;;;;;;5129318;27;20035;-88
2023/12/24 12:22:35;;;;;;;34.17;8.10;;;;;;;;;;5125741;27;20034;-87
2023/12/24 12:25:01;;;;;;;21.60;4.70;;;;;;;;;;5126353;27;20034;-87
2023/12/24 12:27:28;;;;;;;21.50;4.97;;;;;;;;;;5127766;27;20039;-87
2023/12/24 12:29:54;;;;;;;19.05;5.10;;;;;;;;;;5127236;27;20819;-88
2023/12/24 12:32:20;;;;;;;19.60;5.20;;;;;;;;;;5123376;27;20216;-88
2023/12/24 12:34:46;;;;;;;19.80;6.32;;;;;;;;;;5127587;27;20507;-86
2023/12/24 12:37:12;;;;;;;22.15;6.35;;;;;;;;;;5121709;27;20087;-87
2023/12/24 12:39:38;;;;;;;27.92;6.47;;;;;;;;;;5127388;27;20085;-90
2023/12/24 12:42:05;;;;;;;18.63;5.55;;;;;;;;;;5127327;27;20145;-89
2023/12/24 12:44:31;;;;;;;20.95;4.75;;;;;;;;;;5128728;27;20050;-88
2023/12/24 12:46:57;;;;;;;24.27;5.45;;;;;;;;;;5126948;27;20134;-84
2023/12/24 12:49:24;;;;;;;27.67;5.28;;;;;;;;;;5127580;27;20047;-87
2023/12/24 12:51:50;;;;;;;13.52;4.10;;;;;;;;;;5128470;27;20039;-86
2023/12/24 12:54:20;;;;;;;18.40;4.20;;;10.90;99.90;;;;;;5118946;27;20042;-87
2023/12/24 12:56:50;;;;;;;17.27;4.13;;;10.90;99.90;;;;;;5110200;27;20034;-88
2023/12/24 12:59:23;;;;;;;21.05;4.13;;;10.80;99.90;;;;;;5107277;27;20039;-86
2023/12/24 13:01:49;;;;;;;26.90;7.28;;;10.90;99.90;;;;;;5114728;27;20039;-85
2023/12/24 13:04:34;;;;;;;22.55;5.15;;;10.80;99.90;;;;;;5132424;27;20066;-88
2023/12/24 13:07:07;;;;;;;19.75;4.03;;;13.10;99.90;;;;;;5129161;27;20488;-86
2023/12/24 13:09:43;;;;;;;32.40;6.68;;;10.90;99.90;;;;;;5150310;27;20486;-88
2023/12/24 13:12:10;;;;;;;34.53;6.97;;;;;;;;;;5114196;27;20803;-86
2023/12/24 13:14:36;;;;;;;33.63;6.78;;;;;;;;;;5131295;27;20046;-87
2023/12/24 13:17:09;;;;;;;30.48;6.15;;;10.90;99.90;;;;;;5132522;27;20509;-85
2023/12/24 13:19:38;;;;;;;22.38;6.63;;;10.90;99.90;;;;;;5114912;27;20034;-86
2023/12/24 13:22:05;;;;;;;23.35;6.90;;;10.90;99.90;;;;;;5131016;27;20109;-87
2023/12/24 13:24:31;;;;;;;39.17;9.73;;;;;;;;;;5130647;27;20043;-87
2023/12/24 13:26:58;;;;;;;34.33;7.60;;;10.90;99.90;;;;;;5131174;27;20404;-86
2023/12/24 13:29:24;;;;;;;33.80;6.00;;;;;;;;;;5125049;27;20121;-88
2023/12/24 13:31:50;;;;;;;27.35;6.32;;;;;;;;;;5120598;27;20103;-85
2023/12/24 13:34:20;;;;;;;31.83;7.65;;;;;;;;;;5131758;27;20046;-85
2023/12/24 13:36:49;;;;;;;37.22;9.77;;;10.90;99.90;;;;;;5130206;27;20054;-85
2023/12/24 13:39:19;;;;;;;35.40;9.20;;;;;;;;;;5114211;27;20099;-86
2023/12/24 13:41:45;;;;;;;25.23;6.97;;;;;;;;;;5129550;27;20843;-86
2023/12/24 13:44:11;;;;;;;42.60;8.30;;;;;;;;;;5115118;27;20500;-87
2023/12/24 13:46:38;;;;;;;32.83;7.40;;;;;;;;;;5128859;27;20046;-85
2023/12/24 13:49:04;;;;;;;33.13;7.28;;;10.90;99.90;;;;;;5126547;27;20873;-86
2023/12/24 13:51:33;;;;;;;30.50;7.18;;;;;;;;;;5128481;27;20039;-85
2023/12/24 13:53:59;;;;;;;32.08;6.20;;;;;;;;;;5131477;27;20041;-89
2023/12/24 13:56:29;;;;;;;28.85;5.82;;;;;;;;;;5131994;27;20544;-87
2023/12/24 13:58:55;;;;;;;22.80;5.57;;;;;;;;;;5108995;27;20054;-84
2023/12/24 14:01:22;;;;;;;18.65;5.90;;;;;;;;;;5132247;27;20749;-89
2023/12/24 14:03:48;;;;;;;19.67;4.45;;;;;;;;;;5130212;27;20038;-87
2023/12/24 14:06:14;;;;;;;23.98;5.75;;;;;;;;;;5129510;27;20103;-86
2023/12/24 14:08:40;;;;;;;23.90;4.43;;;;;;;;;;5120965;27;20042;-86